createdAt,value
2022-12-05T00:01:27.498Z,10.10
2022-12-05T00:03:55.729Z,10.30
2022-12-05T00:06:24.112Z,10.93
2022-12-05T00:08:51.773Z,10.33
2022-12-05T00:11:20.077Z,12.00
2022-12-05T00:13:48.435Z,10.57
2022-12-05T00:16:18.654Z,10.90
2022-12-05T00:18:46.403Z,10.83
2022-12-05T00:21:14.861Z,10.73
2022-12-05T00:23:42.571Z,11.07
2022-12-05T00:26:10.454Z,10.93
2022-12-05T00:28:38.068Z,10.57
2022-12-05T00:31:06.580Z,10.63
2022-12-05T00:33:35.898Z,11.47
2022-12-05T00:36:04.146Z,11.77
2022-12-05T00:38:31.600Z,11.10
2022-12-05T00:41:03.213Z,11.17
2022-12-05T00:43:30.801Z,12.13
2022-12-05T00:46:01.405Z,10.87
2022-12-05T00:48:28.903Z,11.67
2022-12-05T00:51:02.246Z,10.93
2022-12-05T00:53:29.729Z,10.67
2022-12-05T00:55:57.187Z,11.30
2022-12-05T00:58:24.613Z,11.23
2022-12-05T01:00:52.264Z,11.13
2022-12-05T01:03:19.775Z,11.27
2022-12-05T01:05:47.264Z,11.27
2022-12-05T01:08:16.201Z,10.70
2022-12-05T01:10:43.657Z,11.77
2022-12-05T01:13:11.103Z,10.67
2022-12-05T01:15:38.552Z,11.20
2022-12-05T01:18:06.199Z,11.43
2022-12-05T01:20:33.647Z,10.50
2022-12-05T01:23:01.272Z,10.90
2022-12-05T01:25:30.028Z,10.30
2022-12-05T01:27:57.581Z,10.33
2022-12-05T01:30:25.138Z,10.37
2022-12-05T01:32:52.868Z,10.33
2022-12-05T01:35:20.375Z,10.77
2022-12-05T01:37:47.887Z,10.17
2022-12-05T01:40:15.389Z,10.47
2022-12-05T01:42:44.414Z,9.93
2022-12-05T01:45:15.757Z,11.13
2022-12-05T01:47:43.562Z,10.40
2022-12-05T01:50:12.801Z,11.67
2022-12-05T01:52:40.399Z,10.43
2022-12-05T01:55:09.479Z,10.87
2022-12-05T01:57:37.267Z,10.53
2022-12-05T02:00:10.654Z,11.00
2022-12-05T02:02:42.569Z,10.87
2022-12-05T02:05:12.479Z,11.33
2022-12-05T02:07:42.078Z,10.37
2022-12-05T02:10:10.805Z,9.87
2022-12-05T02:12:39.224Z,10.00
2022-12-05T02:15:13.731Z,10.37
2022-12-05T02:17:45.650Z,10.37
2022-12-05T02:20:19.768Z,10.77
2022-12-05T02:23:03.471Z,10.00
2022-12-05T02:25:57.680Z,9.83
2022-12-05T02:28:43.519Z,9.80
2022-12-05T02:31:13.504Z,9.10
2022-12-05T02:33:44.454Z,8.93
2022-12-05T02:36:15.413Z,9.73
2022-12-05T02:38:47.198Z,10.23
2022-12-05T02:41:17.866Z,9.90
2022-12-05T02:43:48.578Z,10.60
2022-12-05T02:46:20.364Z,9.07
2022-12-05T02:48:48.622Z,9.17
2022-12-05T02:51:18.936Z,8.87
2022-12-05T02:53:47.212Z,8.97
2022-12-05T02:56:15.566Z,7.77
2022-12-05T02:58:45.663Z,8.57
2022-12-05T03:01:13.273Z,8.47
2022-12-05T03:03:42.164Z,8.47
2022-12-05T03:06:13.409Z,7.70
2022-12-05T03:08:43.492Z,7.83
2022-12-05T03:11:10.990Z,7.83
2022-12-05T03:13:41.622Z,8.13
2022-12-05T03:16:13.708Z,8.13
2022-12-05T03:18:45.069Z,7.80
2022-12-05T03:21:19.468Z,8.23
2022-12-05T03:23:49.777Z,7.80
2022-12-05T03:26:20.571Z,7.83
2022-12-05T03:28:56.035Z,7.87
2022-12-05T03:31:27.417Z,7.13
2022-12-05T03:33:58.030Z,8.20
2022-12-05T03:36:29.804Z,8.20
2022-12-05T03:39:00.878Z,7.53
2022-12-05T03:41:32.073Z,7.43
2022-12-05T03:44:02.264Z,7.60
2022-12-05T03:46:31.359Z,8.10
2022-12-05T03:49:01.978Z,7.43
2022-12-05T03:51:31.790Z,7.87
2022-12-05T03:54:03.119Z,7.47
2022-12-05T03:56:34.756Z,9.90
2022-12-05T03:59:06.165Z,8.60
2022-12-05T04:01:34.767Z,16.57
2022-12-05T04:04:05.990Z,14.53
2022-12-05T04:06:34.905Z,9.13
2022-12-05T04:09:03.683Z,8.10
2022-12-05T04:11:33.150Z,8.17
2022-12-05T04:14:01.936Z,8.07
2022-12-05T04:16:48.417Z,7.70
2022-12-05T04:19:18.640Z,8.37
2022-12-05T04:21:48.093Z,7.80
2022-12-05T04:24:36.463Z,6.87
2022-12-05T04:27:09.346Z,7.20
2022-12-05T04:29:38.396Z,7.07
2022-12-05T04:32:09.173Z,7.10
2022-12-05T04:34:38.635Z,9.77
2022-12-05T04:37:08.126Z,7.70
2022-12-05T04:39:38.486Z,6.20
2022-12-05T04:42:07.463Z,7.70
2022-12-05T04:44:36.304Z,6.77
2022-12-05T04:47:04.931Z,6.93
2022-12-05T04:49:34.048Z,6.97
2022-12-05T04:52:04.755Z,7.93
2022-12-05T04:54:33.087Z,7.03
2022-12-05T04:57:06.688Z,6.83
2022-12-05T04:59:34.152Z,6.57
2022-12-05T05:02:05.454Z,6.87
2022-12-05T05:04:34.963Z,7.10
2022-12-05T05:07:08.017Z,7.07
2022-12-05T05:09:35.527Z,7.80
2022-12-05T05:12:03.053Z,7.03
2022-12-05T05:14:30.481Z,8.30
2022-12-05T05:16:58.517Z,8.27
2022-12-05T05:19:26.079Z,14.97
2022-12-05T05:21:53.580Z,13.93
2022-12-05T05:24:23.500Z,13.87
2022-12-05T05:26:56.841Z,10.40
2022-12-05T05:29:24.790Z,10.60
2022-12-05T05:31:52.217Z,9.70
2022-12-05T05:34:19.657Z,8.83
2022-12-05T05:36:47.102Z,8.03
2022-12-05T05:39:15.535Z,8.73
2022-12-05T05:41:44.806Z,8.13
2022-12-05T05:44:12.230Z,7.73
2022-12-05T05:46:39.719Z,7.70
2022-12-05T05:49:07.190Z,7.13
2022-12-05T05:51:34.672Z,7.03
2022-12-05T05:54:02.142Z,6.27
2022-12-05T05:56:30.178Z,5.93
2022-12-05T05:59:00.243Z,6.37
2022-12-05T06:01:27.865Z,6.57
2022-12-05T06:03:55.483Z,5.87
2022-12-05T06:06:23.298Z,6.20
2022-12-05T06:08:50.722Z,6.33
2022-12-05T06:11:25.250Z,6.20
2022-12-05T06:13:54.383Z,5.87
2022-12-05T06:16:23.477Z,6.27
2022-12-05T06:18:51.052Z,6.30
2022-12-05T06:21:18.524Z,6.00
2022-12-05T06:23:46.576Z,5.73
2022-12-05T06:26:15.079Z,6.50
2022-12-05T06:28:42.797Z,7.00
2022-12-05T06:31:11.147Z,6.40
2022-12-05T06:33:40.260Z,6.97
2022-12-05T06:36:08.779Z,6.53
2022-12-05T06:38:40.553Z,7.53
2022-12-05T06:41:10.198Z,7.20
2022-12-05T06:43:37.616Z,8.80
2022-12-05T06:46:05.488Z,7.87
2022-12-05T06:48:32.986Z,8.00
2022-12-05T06:51:01.786Z,7.70
2022-12-05T06:53:29.587Z,8.60
2022-12-05T06:55:57.639Z,7.73
2022-12-05T06:58:25.306Z,8.57
2022-12-05T07:01:10.159Z,10.37
2022-12-05T07:03:37.669Z,8.50
2022-12-05T07:06:07.507Z,8.87
2022-12-05T07:08:35.409Z,8.83
2022-12-05T07:11:02.857Z,8.63
2022-12-05T07:13:30.650Z,8.37
2022-12-05T07:15:59.013Z,8.80
2022-12-05T07:18:27.048Z,9.03
2022-12-05T07:21:13.603Z,7.77
2022-12-05T07:23:43.067Z,8.33
2022-12-05T07:26:11.318Z,8.23
2022-12-05T07:28:38.752Z,8.57
2022-12-05T07:31:07.494Z,9.73
2022-12-05T07:33:35.155Z,8.07
2022-12-05T07:36:03.192Z,8.77
2022-12-05T07:38:30.791Z,8.33
2022-12-05T07:40:59.551Z,8.63
2022-12-05T07:43:26.968Z,8.10
2022-12-05T07:45:54.504Z,8.83
2022-12-05T07:48:22.071Z,8.83
2022-12-05T07:50:49.504Z,8.97
2022-12-05T07:53:16.935Z,8.17
2022-12-05T07:55:44.404Z,7.90
2022-12-05T07:58:13.177Z,8.13
2022-12-05T08:00:40.687Z,8.00
2022-12-05T08:03:08.102Z,7.73
2022-12-05T08:05:35.549Z,7.93
2022-12-05T08:08:03.090Z,8.17
2022-12-05T08:10:30.583Z,7.77
2022-12-05T08:12:58.080Z,7.60
2022-12-05T08:15:26.839Z,7.93
2022-12-05T08:17:54.306Z,7.70
2022-12-05T08:20:21.743Z,8.10
2022-12-05T08:22:52.318Z,7.20
2022-12-05T08:25:19.724Z,7.10
2022-12-05T08:27:47.157Z,6.97
2022-12-05T08:30:14.688Z,7.00
2022-12-05T08:32:43.794Z,7.30
2022-12-05T08:35:11.275Z,6.90
2022-12-05T08:37:38.694Z,7.50
2022-12-05T08:40:06.774Z,6.60
2022-12-05T08:42:34.335Z,7.40
2022-12-05T08:45:01.771Z,6.80
2022-12-05T08:47:30.996Z,6.47
2022-12-05T08:50:01.222Z,6.17
2022-12-05T08:52:28.690Z,6.90
2022-12-05T08:54:56.655Z,6.83
2022-12-05T08:57:24.371Z,6.93
2022-12-05T08:59:51.890Z,6.50
2022-12-05T09:02:19.368Z,6.13
2022-12-05T09:04:53.849Z,6.00
2022-12-05T09:07:23.306Z,6.07
2022-12-05T09:09:51.131Z,6.43
2022-12-05T09:12:18.708Z,6.70
2022-12-05T09:14:46.256Z,7.10
2022-12-05T09:17:13.683Z,6.60
2022-12-05T09:19:41.129Z,6.93
2022-12-05T09:22:08.567Z,8.63
2022-12-05T09:24:37.686Z,8.90
2022-12-05T09:27:05.430Z,7.47
2022-12-05T09:29:32.881Z,6.23
2022-12-05T09:32:00.418Z,6.17
2022-12-05T09:34:27.952Z,6.87
2022-12-05T09:37:10.332Z,5.80
2022-12-05T09:39:45.473Z,5.63
2022-12-05T09:42:24.879Z,6.17
2022-12-05T09:45:03.191Z,6.50
2022-12-05T09:47:34.093Z,6.00
2022-12-05T09:50:03.632Z,6.00
2022-12-05T09:52:32.522Z,5.80
2022-12-05T09:55:04.690Z,5.73
2022-12-05T09:57:35.051Z,6.27
2022-12-05T10:00:03.560Z,5.67
2022-12-05T10:02:36.564Z,5.53
2022-12-05T10:05:07.631Z,6.13
2022-12-05T10:07:38.073Z,5.70
2022-12-05T10:10:20.695Z,5.97
2022-12-05T10:12:52.966Z,5.67
2022-12-05T10:15:24.144Z,5.37
2022-12-05T10:17:53.704Z,5.43
2022-12-05T10:20:23.806Z,5.77
2022-12-05T10:22:53.070Z,5.07
2022-12-05T10:25:22.935Z,5.23
2022-12-05T10:27:54.178Z,5.20
2022-12-05T10:30:23.013Z,4.87
2022-12-05T10:32:52.393Z,5.10
2022-12-05T10:35:22.021Z,5.13
2022-12-05T10:37:52.426Z,4.73
2022-12-05T10:40:20.440Z,4.60
2022-12-05T10:42:50.120Z,4.63
2022-12-05T10:45:19.328Z,4.40
2022-12-05T10:47:47.363Z,5.50
2022-12-05T10:50:23.749Z,4.53
2022-12-05T10:52:52.614Z,5.33
2022-12-05T10:55:20.334Z,4.83
2022-12-05T10:57:53.209Z,4.57
2022-12-05T11:00:22.465Z,4.47
2022-12-05T11:02:50.699Z,5.20
2022-12-05T11:05:28.125Z,4.43
2022-12-05T11:07:57.509Z,4.50
2022-12-05T11:10:27.465Z,4.47
2022-12-05T11:12:57.652Z,7.27
2022-12-05T11:15:26.152Z,6.20
2022-12-05T11:17:53.909Z,4.30
2022-12-05T11:20:42.429Z,3.83
2022-12-05T11:23:18.370Z,4.00
2022-12-05T11:25:46.652Z,4.27
2022-12-05T11:28:26.992Z,4.47
2022-12-05T11:30:57.615Z,4.00
2022-12-05T11:33:25.794Z,3.80
2022-12-05T11:35:54.112Z,4.00
2022-12-05T11:38:22.878Z,4.87
2022-12-05T11:40:54.466Z,4.40
2022-12-05T11:43:34.841Z,4.17
2022-12-05T11:46:07.574Z,4.50
2022-12-05T11:48:47.599Z,4.83
2022-12-05T11:51:21.572Z,5.03
2022-12-05T11:54:06.078Z,4.80
2022-12-05T11:56:37.004Z,5.23
2022-12-05T11:59:17.487Z,4.53
2022-12-05T12:01:51.849Z,4.97
2022-12-05T12:04:26.949Z,5.00
2022-12-05T12:07:01.142Z,4.57
2022-12-05T12:09:34.399Z,4.67
2022-12-05T12:12:05.110Z,5.27
2022-12-05T12:14:38.366Z,4.73
2022-12-05T12:17:11.658Z,4.47
2022-12-05T12:19:44.790Z,4.63
2022-12-05T12:22:22.311Z,4.67
2022-12-05T12:25:03.972Z,4.57
2022-12-05T12:27:37.613Z,4.10
2022-12-05T12:30:11.534Z,4.33
2022-12-05T12:32:44.165Z,5.03
2022-12-05T12:35:26.489Z,4.50
2022-12-05T12:38:01.717Z,4.10
2022-12-05T12:40:31.872Z,4.67
2022-12-05T12:43:14.554Z,5.60
2022-12-05T12:46:00.857Z,8.93
2022-12-05T12:48:36.510Z,11.33
2022-12-05T12:51:04.242Z,8.80
2022-12-05T12:53:55.805Z,6.40
2022-12-05T12:56:28.290Z,5.10
2022-12-05T12:58:59.938Z,4.33
2022-12-05T13:01:33.821Z,4.30
2022-12-05T13:04:04.265Z,4.20
2022-12-05T13:06:35.844Z,3.73
2022-12-05T13:09:04.663Z,4.40
2022-12-05T13:11:36.691Z,4.13
2022-12-05T13:14:04.902Z,4.20
2022-12-05T13:16:35.256Z,3.70
2022-12-05T13:19:03.427Z,3.53
2022-12-05T13:21:30.992Z,4.37
2022-12-05T13:24:03.202Z,4.10
2022-12-05T13:26:30.765Z,3.87
2022-12-05T13:28:59.639Z,4.13
2022-12-05T13:31:42.010Z,3.90
2022-12-05T13:34:35.168Z,4.10
2022-12-05T13:37:30.277Z,3.53
2022-12-05T13:40:16.604Z,3.53
2022-12-05T13:42:45.199Z,3.67
2022-12-05T13:45:16.512Z,3.30
2022-12-05T13:47:52.937Z,3.73
2022-12-05T13:50:22.651Z,3.67
2022-12-05T13:52:51.938Z,3.30
2022-12-05T13:55:29.574Z,3.63
2022-12-05T13:58:00.366Z,3.47
2022-12-05T14:00:34.840Z,3.73
2022-12-05T14:03:04.950Z,3.97
2022-12-05T14:05:43.319Z,3.83
2022-12-05T14:08:29.504Z,4.07
2022-12-05T14:11:11.209Z,4.03
2022-12-05T14:13:43.512Z,3.97
2022-12-05T14:16:29.757Z,4.00
2022-12-05T14:19:02.991Z,4.17
2022-12-05T14:21:37.819Z,4.43
2022-12-05T14:24:08.734Z,4.37
2022-12-05T14:26:44.769Z,4.67
2022-12-05T14:29:29.331Z,4.83
2022-12-05T14:32:04.948Z,4.77
2022-12-05T14:34:34.220Z,5.07
2022-12-05T14:37:03.338Z,5.47
2022-12-05T14:39:41.792Z,5.90
2022-12-05T14:42:21.232Z,5.00
2022-12-05T14:44:49.725Z,5.30
2022-12-05T14:47:20.371Z,5.80
2022-12-05T14:50:04.868Z,5.90
2022-12-05T14:52:34.018Z,5.63
2022-12-05T14:55:03.299Z,5.67
2022-12-05T14:57:31.673Z,6.03
2022-12-05T15:00:02.110Z,5.97
2022-12-05T15:02:32.090Z,5.73
2022-12-05T15:05:02.935Z,6.63
2022-12-05T15:07:33.103Z,6.07
2022-12-05T15:10:02.111Z,6.80
2022-12-05T15:12:31.252Z,6.60
2022-12-05T15:15:02.888Z,6.80
2022-12-05T15:17:36.684Z,6.10
2022-12-05T15:20:08.066Z,6.33
2022-12-05T15:22:37.938Z,6.80
2022-12-05T15:25:15.244Z,6.77
2022-12-05T15:27:51.938Z,7.07
2022-12-05T15:30:20.211Z,7.13
2022-12-05T15:32:47.735Z,7.77
2022-12-05T15:35:17.351Z,6.60
2022-12-05T15:37:47.634Z,6.50
2022-12-05T15:40:17.806Z,6.83
2022-12-05T15:42:46.089Z,7.17
2022-12-05T15:45:19.983Z,7.00
2022-12-05T15:47:48.622Z,6.73
2022-12-05T15:50:18.337Z,7.07
2022-12-05T15:52:48.764Z,6.50
2022-12-05T15:55:18.671Z,6.97
2022-12-05T15:57:47.935Z,7.00
2022-12-05T16:00:17.179Z,6.83
2022-12-05T16:02:47.903Z,6.33
2022-12-05T16:05:21.198Z,6.53
2022-12-05T16:07:49.629Z,6.90
2022-12-05T16:10:17.631Z,6.83
2022-12-05T16:12:45.097Z,6.50
2022-12-05T16:15:15.060Z,6.27
2022-12-05T16:17:44.034Z,6.57
2022-12-05T16:20:12.703Z,6.60
2022-12-05T16:22:46.145Z,5.90
2022-12-05T16:25:15.305Z,6.50
2022-12-05T16:27:43.997Z,6.40
2022-12-05T16:30:18.755Z,5.67
2022-12-05T16:32:46.827Z,6.37
2022-12-05T16:35:30.811Z,6.23
2022-12-05T16:38:19.479Z,5.87
2022-12-05T16:40:55.851Z,5.70
2022-12-05T16:43:29.137Z,6.00
2022-12-05T16:45:58.511Z,6.17
2022-12-05T16:48:26.627Z,6.30
2022-12-05T16:50:54.526Z,6.07
2022-12-05T16:53:23.484Z,5.63
2022-12-05T16:55:50.969Z,5.37
2022-12-05T16:58:24.053Z,6.00
2022-12-05T17:00:51.859Z,6.13
2022-12-05T17:03:34.357Z,5.53
2022-12-05T17:06:02.940Z,5.67
2022-12-05T17:08:30.407Z,5.80
2022-12-05T17:10:58.145Z,5.50
2022-12-05T17:13:26.946Z,5.37
2022-12-05T17:15:54.464Z,5.40
2022-12-05T17:18:26.551Z,5.57
2022-12-05T17:20:57.947Z,5.47
2022-12-05T17:23:25.718Z,6.30
2022-12-05T17:25:54.524Z,5.97
2022-12-05T17:28:22.281Z,5.57
2022-12-05T17:30:51.279Z,5.70
2022-12-05T17:33:20.050Z,6.00
2022-12-05T17:35:47.681Z,6.43
2022-12-05T17:38:15.179Z,6.40
2022-12-05T17:40:42.598Z,6.40
2022-12-05T17:43:11.346Z,6.27
2022-12-05T17:45:38.792Z,7.27
2022-12-05T17:48:07.713Z,6.70
2022-12-05T17:50:35.264Z,7.47
2022-12-05T17:55:51.022Z,6.80
2022-12-05T17:58:18.878Z,6.27
2022-12-05T18:00:46.857Z,7.27
2022-12-05T18:03:16.702Z,6.93
2022-12-05T18:05:44.619Z,6.50
2022-12-05T18:08:12.544Z,6.37
2022-12-05T18:10:41.862Z,6.27
2022-12-05T18:13:09.398Z,6.30
2022-12-05T18:15:42.408Z,6.60
2022-12-05T18:18:12.543Z,5.67
2022-12-05T18:20:41.391Z,6.00
2022-12-05T18:23:08.902Z,6.03
2022-12-05T18:25:38.550Z,6.00
2022-12-05T18:28:06.119Z,5.60
2022-12-05T18:30:33.579Z,5.43
2022-12-05T18:33:01.092Z,5.77
2022-12-05T18:35:41.098Z,6.33
2022-12-05T18:38:10.500Z,5.83
2022-12-05T18:40:38.344Z,7.10
2022-12-05T18:43:06.093Z,6.57
2022-12-05T18:45:33.603Z,6.27
2022-12-05T18:48:16.308Z,6.33
2022-12-05T18:50:48.555Z,6.30
2022-12-05T18:53:17.444Z,6.33
2022-12-05T18:56:05.300Z,7.33
2022-12-05T18:58:32.467Z,8.30
2022-12-05T19:01:04.493Z,7.90
2022-12-05T19:03:32.737Z,6.43
2022-12-05T19:06:00.204Z,6.53
2022-12-05T19:08:29.025Z,6.30
2022-12-05T19:10:56.476Z,5.63
2022-12-05T19:13:23.994Z,5.90
2022-12-05T19:15:51.502Z,5.70
2022-12-05T19:18:18.936Z,6.03
2022-12-05T19:20:52.433Z,5.30
2022-12-05T19:23:19.862Z,5.90
2022-12-05T19:25:48.667Z,5.33
2022-12-05T19:28:16.100Z,5.27
2022-12-05T19:30:43.525Z,5.47
2022-12-05T19:33:11.042Z,5.60
2022-12-05T19:35:38.491Z,5.30
2022-12-05T19:38:05.966Z,4.67
2022-12-05T19:40:33.394Z,5.50
2022-12-05T19:43:04.267Z,4.53
2022-12-05T19:45:31.893Z,5.17
2022-12-05T19:47:59.540Z,4.90
2022-12-05T19:50:27.193Z,4.30
2022-12-05T19:52:54.634Z,4.60
2022-12-05T19:55:22.204Z,4.97
2022-12-05T19:57:49.650Z,4.10
2022-12-05T20:00:19.804Z,4.57
2022-12-05T20:02:50.262Z,4.53
2022-12-05T20:05:18.004Z,4.93
2022-12-05T20:07:45.469Z,5.37
2022-12-05T20:10:12.991Z,5.37
2022-12-05T20:12:40.511Z,4.80
2022-12-05T20:15:10.357Z,5.00
2022-12-05T20:17:39.218Z,5.27
2022-12-05T20:20:07.468Z,4.53
2022-12-05T20:22:35.138Z,4.50
2022-12-05T20:25:02.590Z,3.60
2022-12-05T20:27:33.297Z,3.07
2022-12-05T20:30:00.883Z,3.00
2022-12-05T20:32:28.492Z,2.90
2022-12-05T20:34:57.870Z,2.90
2022-12-05T20:37:25.291Z,2.63
2022-12-05T20:39:52.713Z,2.77
2022-12-05T20:42:20.196Z,2.77
2022-12-05T20:44:47.665Z,2.47
2022-12-05T20:47:15.102Z,2.93
2022-12-05T20:49:42.648Z,2.97
2022-12-05T20:52:11.416Z,2.50
2022-12-05T20:54:38.890Z,2.87
2022-12-05T20:57:06.328Z,2.90
2022-12-05T20:59:33.791Z,2.43
2022-12-05T21:02:01.295Z,2.80
2022-12-05T21:04:28.888Z,2.93
2022-12-05T21:06:57.274Z,2.80
2022-12-05T21:09:30.224Z,2.67
2022-12-05T21:11:58.518Z,2.77
2022-12-05T21:14:25.997Z,2.90
2022-12-05T21:16:53.614Z,2.97
2022-12-05T21:19:21.344Z,3.00
2022-12-05T21:21:49.871Z,2.73
2022-12-05T21:24:17.380Z,2.43
2022-12-05T21:26:46.690Z,3.20
2022-12-05T21:29:14.223Z,2.43
2022-12-05T21:31:42.695Z,2.73
2022-12-05T21:34:14.805Z,2.60
2022-12-05T21:36:42.488Z,2.03
2022-12-05T21:39:11.051Z,2.70
2022-12-05T21:41:38.761Z,2.53
2022-12-05T21:44:08.218Z,2.50
2022-12-05T21:46:35.804Z,2.83
2022-12-05T21:49:03.390Z,2.80
2022-12-05T21:51:30.864Z,2.53
2022-12-05T21:53:58.354Z,2.60
2022-12-05T21:56:25.839Z,2.40
2022-12-05T21:58:53.648Z,2.70
2022-12-05T22:01:24.496Z,2.50
2022-12-05T22:03:53.023Z,2.70
2022-12-05T22:06:20.498Z,3.07
2022-12-05T22:08:48.002Z,3.00
2022-12-05T22:11:16.298Z,3.03
2022-12-05T22:13:44.324Z,3.07
2022-12-05T22:16:12.317Z,2.80
2022-12-05T22:18:41.814Z,3.10
2022-12-05T22:21:11.151Z,3.10
2022-12-05T22:23:38.802Z,3.17
2022-12-05T22:26:07.847Z,3.03
2022-12-05T22:28:35.690Z,3.40
2022-12-05T22:31:04.604Z,3.20
2022-12-05T22:33:32.586Z,3.13
2022-12-05T22:36:02.591Z,2.87
2022-12-05T22:38:32.479Z,2.93
2022-12-05T22:41:00.961Z,2.60
2022-12-05T22:43:29.011Z,2.57
2022-12-05T22:45:56.857Z,2.77
2022-12-05T22:48:27.220Z,2.80
2022-12-05T22:50:55.242Z,2.87
2022-12-05T22:53:24.450Z,2.30
2022-12-05T22:55:52.431Z,2.40
2022-12-05T22:58:20.369Z,2.60
2022-12-05T23:00:47.805Z,2.63
2022-12-05T23:03:15.505Z,2.70
2022-12-05T23:05:44.456Z,2.80
2022-12-05T23:08:12.549Z,3.17
2022-12-05T23:10:41.456Z,2.67
2022-12-05T23:13:09.302Z,3.27
2022-12-05T23:15:38.313Z,3.43
2022-12-05T23:18:05.944Z,3.40
2022-12-05T23:20:34.018Z,3.53
2022-12-05T23:23:01.541Z,3.40
2022-12-05T23:25:29.090Z,3.53
2022-12-05T23:27:57.981Z,3.00
2022-12-05T23:30:25.572Z,3.40
2022-12-05T23:32:53.129Z,3.30
2022-12-05T23:35:20.678Z,3.47
2022-12-05T23:37:48.646Z,3.50
2022-12-05T23:40:16.260Z,3.23
2022-12-05T23:42:44.084Z,3.33
2022-12-05T23:45:13.071Z,3.10
2022-12-05T23:47:40.585Z,3.13
2022-12-05T23:50:08.721Z,3.57
2022-12-05T23:52:36.815Z,3.40
2022-12-05T23:55:04.576Z,3.40
2022-12-05T23:57:32.104Z,2.90
2022-12-05T23:59:59.935Z,2.93
